MDW weather

Chicago Midway International Airport
Chicago, Illinois, United States

Public forecast

Using degrees Fahrenheit for public forecast. Weather courtesy of forecast.io.

METAR (pilot weather report)

Retrieved 2018/12/15 13:53 UTC (30 minutes ago):

KMDW 151353Z 02005KT 7SM FEW250 02/01 A3016 RMK AO2 SLP223 T00170011

TAF (pilot weather forecast)

Retrieved 2018/12/15 12:30 UTC (2 hours ago):

TAF KMDW 151127Z 1512/1618 03008KT P6SM FEW250 TEMPO 1512/1513 2SM BR BKN003 FM160200 01005KT 5SM BR FEW009 FM161400 24006KT P6SM SCT180 BKN250